Time;durP1;ratioP1;P1;durP2;ratioP2;P2;SDS_P1;SDS_P2;PMS_P1;PMS_P2;Temp;Humidity;BMP_temperature;BMP_pressure;BME280_temperature;BME280_humidity;BME280_pressure;Samples;Min_cycle;Max_cycle;Signal;HPM_P1;HPM_P2
2024/04/21 00:00:16;;;;;;;0.10;0.10;;;8.70;57.40;;;;;;5490524;26;19998;-81
2024/04/21 00:02:42;;;;;;;0.10;0.10;;;8.70;57.70;;;;;;5463703;26;20606;-80
2024/04/21 00:05:08;;;;;;;0.10;0.10;;;8.70;57.70;;;;;;5490589;26;20002;-80
2024/04/21 00:07:33;;;;;;;0.10;0.10;;;8.70;57.80;;;;;;5490903;26;19994;-80
2024/04/21 00:09:59;;;;;;;0.10;0.10;;;8.70;57.90;;;;;;5512309;26;20005;-80
2024/04/21 00:12:25;;;;;;;0.10;0.10;;;8.60;57.90;;;;;;5529599;26;20012;-80
2024/04/21 00:14:50;;;;;;;0.10;0.10;;;8.60;58.00;;;;;;5518124;26;20009;-80
2024/04/21 00:17:16;;;;;;;0.10;0.10;;;8.50;58.10;;;;;;5491177;26;20034;-80
2024/04/21 00:19:42;;;;;;;0.10;0.10;;;8.50;58.20;;;;;;5491360;26;20014;-80
2024/04/21 00:22:07;;;;;;;0.10;0.10;;;8.50;58.40;;;;;;5492060;26;19998;-81
2024/04/21 00:24:33;;;;;;;0.10;0.10;;;8.40;58.40;;;;;;5491566;26;20005;-81
2024/04/21 00:26:58;;;;;;;0.10;0.10;;;8.40;58.50;;;;;;5492435;26;20001;-80
2024/04/21 00:29:24;;;;;;;0.10;0.10;;;8.40;58.60;;;;;;5491545;26;20004;-80
2024/04/21 00:31:50;;;;;;;0.10;0.10;;;8.30;58.80;;;;;;5492471;26;20009;-80
2024/04/21 00:34:15;;;;;;;0.10;0.10;;;8.30;58.90;;;;;;5491283;26;20005;-80
2024/04/21 00:36:41;;;;;;;0.10;0.10;;;8.30;58.90;;;;;;5489909;26;20010;-80
2024/04/21 00:39:07;;;;;;;0.10;0.10;;;8.30;59.00;;;;;;5491430;26;19998;-80
2024/04/21 00:41:33;;;;;;;0.10;0.10;;;8.30;59.00;;;;;;5488952;26;20313;-80
2024/04/21 00:43:59;;;;;;;0.10;0.10;;;8.30;59.10;;;;;;5490631;26;19998;-80
2024/04/21 00:46:25;;;;;;;0.10;0.10;;;8.20;59.30;;;;;;5492676;26;20462;-80
2024/04/21 00:48:52;;;;;;;0.10;0.10;;;8.20;59.50;;;;;;5491681;26;20006;-81
2024/04/21 00:51:23;;;;;;;0.10;0.10;;;8.20;59.50;;;;;;5489322;26;20038;-80
2024/04/21 00:53:52;;;;;;;0.10;0.10;;;8.20;59.70;;;;;;5492397;26;20115;-80
2024/04/21 00:56:20;;;;;;;0.10;0.10;;;8.10;59.90;;;;;;5490375;25;20002;-80
2024/04/21 00:58:47;;;;;;;0.10;0.10;;;8.10;59.90;;;;;;5491227;26;19998;-80
2024/04/21 01:01:13;;;;;;;0.10;0.10;;;8.00;60.00;;;;;;5490738;26;20030;-80
2024/04/21 01:03:38;;;;;;;0.10;0.10;;;8.00;60.20;;;;;;5491856;26;20009;-80
2024/04/21 01:06:04;;;;;;;0.10;0.10;;;7.90;60.50;;;;;;5491931;26;20002;-80
2024/04/21 01:08:30;;;;;;;0.10;0.10;;;7.90;60.60;;;;;;5491733;26;19998;-80
2024/04/21 01:10:55;;;;;;;0.10;0.10;;;7.90;60.60;;;;;;5499847;26;20009;-80
2024/04/21 01:13:21;;;;;;;0.10;0.10;;;7.80;60.70;;;;;;5489023;26;20047;-80
2024/04/21 01:15:52;;;;;;;0.10;0.10;;;7.80;60.90;;;;;;5491689;26;19991;-80
2024/04/21 01:18:18;;;;;;;0.10;0.10;;;7.80;60.80;;;;;;5489109;26;20457;-80
2024/04/21 01:20:45;;;;;;;0.10;0.10;;;7.80;60.80;;;;;;5487590;26;20359;-80
2024/04/21 01:23:12;;;;;;;0.10;0.10;;;7.80;60.80;;;;;;5491457;26;20611;-80
2024/04/21 01:25:38;;;;;;;0.10;0.10;;;7.80;60.90;;;;;;5482879;26;20002;-80
2024/04/21 01:28:05;;;;;;;0.10;0.10;;;7.80;60.90;;;;;;5495448;25;20434;-80
2024/04/21 01:30:31;;;;;;;0.10;0.10;;;7.80;61.00;;;;;;5494127;26;20026;-80
2024/04/21 01:32:58;;;;;;;0.10;0.10;;;7.70;61.10;;;;;;5492402;26;20002;-80
2024/04/21 01:35:24;;;;;;;0.10;0.10;;;7.80;61.00;;;;;;5488817;26;20498;-80
2024/04/21 01:37:51;;;;;;;0.10;0.10;;;7.70;61.20;;;;;;5484618;26;20005;-80
2024/04/21 01:40:17;;;;;;;0.10;0.10;;;7.60;61.60;;;;;;5491649;26;20360;-80
2024/04/21 01:42:43;;;;;;;0.10;0.10;;;7.60;61.70;;;;;;5494740;26;20051;-80
2024/04/21 01:45:09;;;;;;;0.10;0.10;;;7.60;61.80;;;;;;5492671;26;20262;-80
2024/04/21 01:47:34;;;;;;;0.10;0.10;;;7.60;61.80;;;;;;5494622;26;20010;-80
2024/04/21 01:50:00;;;;;;;0.10;0.10;;;7.50;61.80;;;;;;5494136;26;19994;-81
2024/04/21 01:52:26;;;;;;;0.10;0.10;;;7.50;62.00;;;;;;5492149;26;19998;-80
2024/04/21 01:54:51;;;;;;;0.10;0.10;;;7.50;62.00;;;;;;5492332;26;20659;-81
2024/04/21 01:57:17;;;;;;;0.10;0.10;;;7.50;61.90;;;;;;5493207;26;20465;-81
2024/04/21 01:59:42;;;;;;;0.10;0.10;;;7.50;62.00;;;;;;5494266;26;20002;-81
2024/04/21 02:02:08;;;;;;;0.10;0.10;;;7.50;61.90;;;;;;5494581;26;19998;-81
2024/04/21 02:04:34;;;;;;;0.10;0.10;;;7.50;61.90;;;;;;5492661;26;20012;-81
2024/04/21 02:06:59;;;;;;;0.10;0.10;;;7.50;62.00;;;;;;5494678;26;20171;-80
2024/04/21 02:09:25;;;;;;;0.10;0.10;;;7.40;62.00;;;;;;5504692;26;20001;-81
2024/04/21 02:11:50;;;;;;;0.10;0.10;;;7.30;62.10;;;;;;5489316;26;20010;-81
2024/04/21 02:14:16;;;;;;;0.10;0.10;;;7.40;62.10;;;;;;5486578;26;20025;-81
2024/04/21 02:16:42;;;;;;;0.10;0.10;;;7.30;62.30;;;;;;5482553;26;19995;-81
2024/04/21 02:19:08;;;;;;;0.10;0.10;;;7.30;62.50;;;;;;5493884;26;19990;-80
2024/04/21 02:21:35;;;;;;;0.10;0.10;;;7.30;62.60;;;;;;5522713;26;20008;-81
2024/04/21 02:24:00;;;;;;;0.10;0.10;;;7.20;63.00;;;;;;5491708;26;19994;-80
2024/04/21 02:26:26;;;;;;;0.10;0.10;;;7.20;63.20;;;;;;5492737;26;20004;-80
2024/04/21 02:28:52;;;;;;;0.10;0.10;;;7.10;63.40;;;;;;5493547;26;19994;-80
2024/04/21 02:31:17;;;;;;;0.10;0.10;;;7.10;63.80;;;;;;5493270;26;19994;-80
2024/04/21 02:33:43;;;;;;;0.10;0.10;;;7.10;63.50;;;;;;5493378;26;20010;-80
2024/04/21 02:36:09;;;;;;;0.10;0.10;;;7.00;63.80;;;;;;5490904;26;20035;-80
2024/04/21 02:38:34;;;;;;;0.10;0.10;;;7.00;63.90;;;;;;5492559;26;19998;-81
2024/04/21 02:41:00;;;;;;;0.10;0.10;;;6.90;64.30;;;;;;5492139;26;19998;-81
2024/04/21 02:43:25;;;;;;;0.10;0.10;;;7.00;64.30;;;;;;5492994;26;19998;-81
2024/04/21 02:45:51;;;;;;;0.10;0.10;;;7.00;64.20;;;;;;5492794;26;20006;-81
2024/04/21 02:48:17;;;;;;;0.10;0.10;;;7.10;64.10;;;;;;5492347;26;20002;-81
2024/04/21 02:50:42;;;;;;;0.10;0.10;;;7.10;64.00;;;;;;5493101;26;19998;-81
2024/04/21 02:53:08;;;;;;;0.10;0.10;;;7.20;63.80;;;;;;5490081;26;20005;-80
2024/04/21 02:55:41;;;;;;;0.10;0.10;;;7.20;63.80;;;;;;5494329;26;20352;-80
2024/04/21 02:58:07;;;;;;;0.10;0.10;;;7.20;63.70;;;;;;5493947;26;20040;-80
2024/04/21 03:00:32;;;;;;;0.10;0.10;;;7.20;63.80;;;;;;5492312;26;20448;-80
2024/04/21 03:02:58;;;;;;;0.10;0.10;;;7.20;63.80;;;;;;5491209;26;20445;-80
2024/04/21 03:05:23;;;;;;;0.10;0.10;;;7.20;63.90;;;;;;5494062;26;20690;-80
2024/04/21 03:07:49;;;;;;;0.10;0.10;;;7.10;63.90;;;;;;5493011;26;19994;-81
2024/04/21 03:10:15;;;;;;;0.10;0.10;;;7.10;64.10;;;;;;5499735;26;20006;-80
2024/04/21 03:12:40;;;;;;;0.10;0.10;;;7.00;64.00;;;;;;5493423;26;20012;-80
2024/04/21 03:15:06;;;;;;;0.10;0.10;;;7.00;64.10;;;;;;5493923;26;20075;-81
2024/04/21 03:17:32;;;;;;;0.20;0.20;;;7.00;64.40;;;;;;5491016;26;20429;-80
2024/04/21 03:19:57;;;;;;;0.10;0.10;;;7.00;64.30;;;;;;5491435;26;20429;-81
2024/04/21 03:22:23;;;;;;;0.10;0.10;;;6.90;64.50;;;;;;5484554;26;20015;-81
2024/04/21 03:24:49;;;;;;;0.10;0.10;;;6.90;64.50;;;;;;5469540;26;19995;-81
2024/04/21 03:27:14;;;;;;;0.10;0.10;;;6.90;64.50;;;;;;5471066;26;21484;-80
2024/04/21 03:29:40;;;;;;;0.10;0.10;;;6.90;64.80;;;;;;5464783;26;20009;-80
2024/04/21 03:32:06;;;;;;;0.10;0.10;;;6.80;65.00;;;;;;5493501;26;19998;-81
2024/04/21 03:34:31;;;;;;;0.10;0.10;;;6.80;65.30;;;;;;5493338;26;20002;-80
2024/04/21 03:36:57;;;;;;;0.10;0.10;;;6.70;65.30;;;;;;5492938;26;20048;-81
2024/04/21 03:39:23;;;;;;;0.10;0.10;;;6.70;65.40;;;;;;5493445;26;19998;-80
2024/04/21 03:41:48;;;;;;;0.10;0.10;;;6.70;65.40;;;;;;5491537;26;20010;-81
2024/04/21 03:44:14;;;;;;;0.10;0.10;;;6.70;65.40;;;;;;5492605;26;19998;-80
2024/04/21 03:46:40;;;;;;;0.10;0.10;;;6.70;65.40;;;;;;5492816;26;20393;-81
2024/04/21 03:49:05;;;;;;;0.10;0.10;;;6.70;65.50;;;;;;5489345;26;20043;-81
2024/04/21 03:51:31;;;;;;;0.10;0.10;;;6.70;65.50;;;;;;5522380;26;20083;-80
2024/04/21 03:53:57;;;;;;;0.10;0.10;;;6.70;65.50;;;;;;5489535;26;20063;-81
2024/04/21 03:56:22;;;;;;;0.10;0.10;;;6.70;65.50;;;;;;5491145;26;19990;-81
2024/04/21 03:58:48;;;;;;;0.10;0.10;;;6.60;65.60;;;;;;5491206;26;19998;-81
2024/04/21 04:01:13;;;;;;;0.10;0.10;;;6.60;65.40;;;;;;5492841;26;20006;-81
2024/04/21 04:03:40;;;;;;;0.10;0.10;;;6.60;65.50;;;;;;5490594;26;20347;-81
2024/04/21 04:06:09;;;;;;;0.10;0.10;;;6.60;65.50;;;;;;5491216;26;20002;-80
2024/04/21 04:08:34;;;;;;;0.10;0.10;;;6.60;65.70;;;;;;5464897;26;20010;-80
2024/04/21 04:11:00;;;;;;;0.10;0.10;;;6.50;66.00;;;;;;5524190;26;19993;-81
2024/04/21 04:13:26;;;;;;;0.10;0.10;;;6.50;66.20;;;;;;5523059;26;20006;-81
2024/04/21 04:15:52;;;;;;;0.10;0.10;;;6.40;66.50;;;;;;5492759;26;20066;-81
2024/04/21 04:18:17;;;;;;;0.10;0.10;;;6.40;66.70;;;;;;5492511;26;20082;-80
2024/04/21 04:20:43;;;;;;;0.10;0.10;;;6.40;66.50;;;;;;5490012;26;20033;-80
2024/04/21 04:23:10;;;;;;;0.10;0.10;;;6.40;66.40;;;;;;5492454;26;20448;-81
2024/04/21 04:25:36;;;;;;;0.10;0.10;;;6.40;66.50;;;;;;5489804;26;20001;-81
2024/04/21 04:28:02;;;;;;;0.10;0.10;;;6.40;66.60;;;;;;5492342;26;20014;-80
2024/04/21 04:30:28;;;;;;;0.10;0.10;;;6.30;66.90;;;;;;5492411;26;20394;-80
2024/04/21 04:32:54;;;;;;;0.10;0.10;;;6.30;67.00;;;;;;5478022;26;19999;-80
2024/04/21 04:35:20;;;;;;;0.10;0.10;;;6.30;67.20;;;;;;5465049;26;20030;-80
2024/04/21 04:37:45;;;;;;;0.10;0.10;;;6.20;67.20;;;;;;5452764;26;19995;-80
2024/04/21 04:40:11;;;;;;;0.17;0.17;;;6.20;67.00;;;;;;5457531;26;20007;-81
2024/04/21 04:42:37;;;;;;;0.15;0.15;;;6.20;67.10;;;;;;5489446;26;20070;-81
2024/04/21 04:45:03;;;;;;;0.10;0.10;;;6.20;67.40;;;;;;5492123;26;19998;-81
2024/04/21 04:47:28;;;;;;;0.10;0.10;;;6.20;67.50;;;;;;5490930;26;19998;-80
2024/04/21 04:49:55;;;;;;;0.10;0.10;;;6.20;67.60;;;;;;5470591;26;20002;-81
2024/04/21 04:52:20;;;;;;;0.10;0.10;;;6.20;67.60;;;;;;5455558;26;20026;-81
2024/04/21 04:54:46;;;;;;;0.10;0.10;;;6.20;67.70;;;;;;5475126;26;20413;-80
2024/04/21 04:57:12;;;;;;;0.10;0.10;;;6.20;67.50;;;;;;5489085;26;19994;-81
2024/04/21 04:59:37;;;;;;;0.10;0.10;;;6.20;67.60;;;;;;5491802;26;20012;-80
2024/04/21 05:02:03;;;;;;;0.10;0.10;;;6.20;67.50;;;;;;5493715;26;20006;-80
2024/04/21 05:04:29;;;;;;;0.10;0.10;;;6.20;67.20;;;;;;5494253;26;20070;-80
2024/04/21 05:06:54;;;;;;;0.10;0.10;;;6.20;67.20;;;;;;5495683;26;19998;-80
2024/04/21 05:09:20;;;;;;;0.20;0.20;;;6.20;67.30;;;;;;5502989;26;20009;-80
2024/04/21 05:11:46;;;;;;;0.10;0.10;;;6.20;67.30;;;;;;5532460;26;20005;-81
2024/04/21 05:14:11;;;;;;;0.10;0.10;;;6.20;67.40;;;;;;5529290;26;19997;-80
2024/04/21 05:16:37;;;;;;;0.10;0.10;;;6.20;67.50;;;;;;5459510;26;19999;-80
2024/04/21 05:19:03;;;;;;;0.20;0.20;;;6.20;67.70;;;;;;5460326;26;20348;-80
2024/04/21 05:21:29;;;;;;;0.10;0.10;;;6.20;68.00;;;;;;5495162;26;20008;-81
2024/04/21 05:23:54;;;;;;;0.17;0.17;;;6.20;68.00;;;;;;5495278;26;19998;-80
2024/04/21 05:26:20;;;;;;;0.10;0.10;;;6.20;68.10;;;;;;5492732;26;19999;-80
2024/04/21 05:28:46;;;;;;;0.20;0.20;;;6.20;67.90;;;;;;5494804;26;19994;-80
2024/04/21 05:31:11;;;;;;;0.10;0.10;;;6.20;68.30;;;;;;5494252;26;20013;-81
2024/04/21 05:33:37;;;;;;;0.10;0.10;;;6.20;68.10;;;;;;5494852;26;20013;-80
2024/04/21 05:36:03;;;;;;;0.10;0.10;;;6.20;68.10;;;;;;5495428;26;20013;-80
2024/04/21 05:38:29;;;;;;;0.10;0.10;;;6.20;68.30;;;;;;5494430;26;20433;-80
2024/04/21 05:40:54;;;;;;;0.10;0.10;;;6.20;68.70;;;;;;5476272;26;20079;-80
2024/04/21 05:43:20;;;;;;;0.10;0.10;;;6.20;69.10;;;;;;5463372;26;20043;-80
2024/04/21 05:45:46;;;;;;;0.10;0.10;;;6.20;69.30;;;;;;5493558;26;20452;-80
2024/04/21 05:48:11;;;;;;;0.10;0.10;;;6.20;69.30;;;;;;5493861;26;20002;-80
2024/04/21 05:50:41;;;;;;;0.10;0.10;;;6.20;69.30;;;;;;5494005;26;20051;-81
2024/04/21 05:53:06;;;;;;;0.10;0.10;;;6.30;69.20;;;;;;5495182;26;19994;-80
2024/04/21 05:55:33;;;;;;;0.10;0.10;;;6.30;69.00;;;;;;5495112;26;20070;-80
2024/04/21 05:57:59;;;;;;;0.10;0.10;;;6.40;68.90;;;;;;5492504;26;20318;-80
2024/04/21 06:00:25;;;;;;;0.10;0.10;;;6.40;69.00;;;;;;5494148;26;20016;-80
2024/04/21 06:02:50;;;;;;;0.10;0.10;;;6.50;69.00;;;;;;5492633;26;20340;-81
2024/04/21 06:05:16;;;;;;;0.10;0.10;;;6.50;68.80;;;;;;5494224;26;20067;-81
2024/04/21 06:07:42;;;;;;;0.10;0.10;;;6.40;68.80;;;;;;5465846;26;20006;-81
2024/04/21 06:10:07;;;;;;;0.10;0.10;;;6.50;68.80;;;;;;5501024;26;20028;-81
2024/04/21 06:12:33;;;;;;;0.10;0.10;;;6.60;68.90;;;;;;5498529;26;20432;-80
2024/04/21 06:14:59;;;;;;;0.10;0.10;;;6.60;68.90;;;;;;5491083;26;20013;-80
2024/04/21 06:17:24;;;;;;;0.10;0.10;;;6.70;68.60;;;;;;5491838;26;20035;-81
2024/04/21 06:19:50;;;;;;;0.10;0.10;;;6.70;68.40;;;;;;5494194;26;19994;-81
2024/04/21 06:22:16;;;;;;;0.10;0.10;;;6.80;68.40;;;;;;5493684;26;19998;-81
2024/04/21 06:24:41;;;;;;;0.10;0.10;;;6.80;68.60;;;;;;5494578;26;20002;-81
2024/04/21 06:27:07;;;;;;;0.10;0.10;;;6.90;68.60;;;;;;5494485;26;20212;-81
2024/04/21 06:29:33;;;;;;;0.10;0.10;;;7.00;68.50;;;;;;5490793;26;19994;-80
2024/04/21 06:31:58;;;;;;;0.10;0.10;;;7.00;68.50;;;;;;5494417;26;20445;-80
2024/04/21 06:34:24;;;;;;;0.20;0.20;;;7.10;68.20;;;;;;5494773;26;20338;-80
2024/04/21 06:36:49;;;;;;;0.10;0.10;;;7.10;68.00;;;;;;5494283;26;20005;-80
2024/04/21 06:39:15;;;;;;;0.10;0.10;;;7.20;68.10;;;;;;5493033;26;20002;-80
2024/04/21 06:41:41;;;;;;;0.20;0.20;;;7.20;68.00;;;;;;5494244;26;19998;-80
2024/04/21 06:44:06;;;;;;;0.10;0.10;;;7.30;68.10;;;;;;5492154;26;20006;-81
2024/04/21 06:46:32;;;;;;;0.20;0.20;;;7.50;67.70;;;;;;5492692;26;20048;-81
2024/04/21 06:48:58;;;;;;;0.20;0.20;;;7.70;67.60;;;;;;5493259;26;20039;-80
2024/04/21 06:51:23;;;;;;;0.10;0.10;;;7.90;67.00;;;;;;5486149;26;20002;-81
2024/04/21 06:53:49;;;;;;;0.20;0.20;;;8.10;66.90;;;;;;5472379;26;19998;-81
2024/04/21 06:56:15;;;;;;;0.10;0.10;;;8.20;66.70;;;;;;5492712;26;19998;-81
2024/04/21 06:58:40;;;;;;;0.10;0.10;;;8.40;66.30;;;;;;5493353;26;20009;-81
2024/04/21 07:01:06;;;;;;;0.10;0.10;;;8.60;66.10;;;;;;5492823;26;19998;-81
2024/04/21 07:03:32;;;;;;;0.20;0.20;;;8.70;65.90;;;;;;5493975;26;20002;-81
2024/04/21 07:05:57;;;;;;;0.10;0.10;;;8.70;65.10;;;;;;5494077;26;19998;-81
2024/04/21 07:08:23;;;;;;;0.10;0.10;;;8.80;65.50;;;;;;5494099;26;19994;-81
2024/04/21 07:10:48;;;;;;;0.10;0.10;;;9.00;65.50;;;;;;5525561;26;19998;-80
2024/04/21 07:13:14;;;;;;;0.20;0.20;;;9.10;65.20;;;;;;5530706;26;20001;-81
2024/04/21 07:15:40;;;;;;;0.10;0.10;;;9.20;64.90;;;;;;5500338;25;20420;-81
2024/04/21 07:18:06;;;;;;;0.10;0.10;;;9.20;65.00;;;;;;5493696;26;20030;-81
2024/04/21 07:20:32;;;;;;;0.10;0.10;;;9.10;65.10;;;;;;5521919;26;19998;-81
2024/04/21 07:22:57;;;;;;;0.10;0.10;;;9.20;65.40;;;;;;5483490;26;19999;-81
2024/04/21 07:25:23;;;;;;;0.10;0.10;;;9.20;65.40;;;;;;5491359;26;20009;-81
2024/04/21 07:27:49;;;;;;;0.10;0.10;;;9.20;65.30;;;;;;5492063;26;20002;-81
2024/04/21 07:30:14;;;;;;;0.10;0.10;;;9.30;65.40;;;;;;5493652;26;19994;-81
2024/04/21 07:32:40;;;;;;;0.10;0.10;;;9.20;65.40;;;;;;5492598;26;20012;-81
2024/04/21 07:35:06;;;;;;;0.10;0.10;;;9.30;65.30;;;;;;5492771;26;19998;-81
2024/04/21 07:37:32;;;;;;;0.10;0.10;;;9.30;65.60;;;;;;5493874;26;20009;-81
2024/04/21 07:39:58;;;;;;;0.20;0.20;;;9.30;65.60;;;;;;5493563;26;19998;-81
2024/04/21 07:42:23;;;;;;;0.10;0.10;;;9.30;66.00;;;;;;5490476;26;20066;-81
2024/04/21 07:44:49;;;;;;;0.10;0.10;;;9.40;66.10;;;;;;5492454;26;20002;-81
2024/04/21 07:47:15;;;;;;;0.10;0.10;;;9.50;65.90;;;;;;5493556;26;20006;-81
2024/04/21 07:49:40;;;;;;;0.10;0.10;;;9.50;65.70;;;;;;5489294;26;19998;-81
2024/04/21 07:52:06;;;;;;;0.10;0.10;;;9.70;65.80;;;;;;5493063;26;20344;-81
2024/04/21 07:54:32;;;;;;;0.20;0.20;;;9.70;65.90;;;;;;5490448;26;20074;-81
2024/04/21 07:56:58;;;;;;;0.10;0.10;;;9.70;65.90;;;;;;5493317;26;20009;-81
2024/04/21 07:59:24;;;;;;;0.15;0.15;;;9.80;65.80;;;;;;5493498;26;20021;-81
2024/04/21 08:01:50;;;;;;;0.10;0.10;;;9.90;65.70;;;;;;5491644;26;20444;-81
2024/04/21 08:04:15;;;;;;;0.10;0.10;;;9.90;65.40;;;;;;5491905;26;20339;-81
2024/04/21 08:06:41;;;;;;;0.10;0.10;;;9.90;65.80;;;;;;5493090;26;20002;-81
2024/04/21 08:09:06;;;;;;;0.10;0.10;;;9.90;65.80;;;;;;5499242;26;20001;-81
2024/04/21 08:11:32;;;;;;;0.10;0.10;;;9.90;65.80;;;;;;5496418;26;20002;-81
2024/04/21 08:13:58;;;;;;;0.10;0.10;;;9.90;66.10;;;;;;5490505;26;19990;-81
2024/04/21 08:16:23;;;;;;;0.10;0.10;;;9.90;65.70;;;;;;5521912;26;19998;-81
2024/04/21 08:18:49;;;;;;;0.10;0.10;;;9.80;65.90;;;;;;5488745;26;20002;-81
2024/04/21 08:21:15;;;;;;;0.10;0.10;;;9.80;66.10;;;;;;5486490;26;20006;-81
2024/04/21 08:23:41;;;;;;;0.10;0.10;;;9.80;66.10;;;;;;5489068;26;20009;-81
2024/04/21 08:26:07;;;;;;;0.10;0.10;;;9.80;66.20;;;;;;5454620;26;20014;-81
2024/04/21 08:28:32;;;;;;;0.10;0.10;;;9.80;66.30;;;;;;5469118;26;19994;-81
2024/04/21 08:30:58;;;;;;;0.10;0.10;;;9.80;66.20;;;;;;5492178;26;20071;-81
2024/04/21 08:33:25;;;;;;;0.10;0.10;;;9.80;66.30;;;;;;5490811;26;20013;-81
2024/04/21 08:35:58;;;;;;;0.10;0.10;;;9.80;66.30;;;;;;5493313;26;19994;-81
2024/04/21 08:38:26;;;;;;;0.10;0.10;;;9.80;66.40;;;;;;5492292;26;20336;-81
2024/04/21 08:40:52;;;;;;;0.10;0.10;;;9.90;67.00;;;;;;5476285;26;20010;-81
2024/04/21 08:43:24;;;;;;;0.10;0.10;;;10.00;66.50;;;;;;5495247;26;19994;-81
2024/04/21 08:45:54;;;;;;;0.10;0.10;;;10.00;66.30;;;;;;5496131;26;19994;-81
2024/04/21 08:48:20;;;;;;;0.10;0.10;;;10.20;66.10;;;;;;5496050;26;20081;-81
2024/04/21 08:50:46;;;;;;;0.10;0.10;;;10.30;66.00;;;;;;5492547;26;19994;-81
2024/04/21 08:53:13;;;;;;;0.10;0.10;;;10.40;65.60;;;;;;5487509;26;19994;-81
2024/04/21 08:55:40;;;;;;;0.10;0.10;;;10.50;65.70;;;;;;5492109;26;19998;-81
2024/04/21 08:58:09;;;;;;;0.10;0.10;;;10.60;65.30;;;;;;5492818;26;19994;-81
2024/04/21 09:00:36;;;;;;;0.10;0.10;;;10.70;65.10;;;;;;5495905;26;20077;-81
2024/04/21 09:03:03;;;;;;;0.10;0.10;;;10.80;64.60;;;;;;5494592;25;19994;-81
2024/04/21 09:05:28;;;;;;;0.10;0.10;;;10.90;64.70;;;;;;5496126;26;19995;-81
2024/04/21 09:07:56;;;;;;;0.10;0.10;;;11.00;64.30;;;;;;5494569;26;20333;-81
2024/04/21 09:10:22;;;;;;;0.20;0.20;;;11.20;64.50;;;;;;5519190;26;20012;-81
2024/04/21 09:12:49;;;;;;;0.10;0.10;;;11.30;64.10;;;;;;5532242;26;20001;-79
2024/04/21 09:15:14;;;;;;;0.20;0.20;;;11.50;63.60;;;;;;5521212;25;20013;-81
2024/04/21 09:17:42;;;;;;;0.10;0.10;;;11.70;63.10;;;;;;5495799;26;19998;-81
2024/04/21 09:20:09;;;;;;;0.10;0.10;;;11.80;62.90;;;;;;5452435;26;1077250;-81
2024/04/21 09:22:34;;;;;;;0.10;0.10;;;11.90;62.10;;;;;;5493685;26;20035;-80
2024/04/21 09:25:00;;;;;;;0.10;0.10;;;12.10;61.60;;;;;;5492335;26;19994;-79
2024/04/21 09:27:26;;;;;;;0.13;0.13;;;12.10;60.80;;;;;;5495477;26;20070;-80
2024/04/21 09:29:52;;;;;;;0.10;0.10;;;12.30;60.50;;;;;;5493574;26;19998;-80
2024/04/21 09:32:17;;;;;;;0.10;0.10;;;12.60;60.60;;;;;;5495366;26;20092;-79
2024/04/21 09:34:44;;;;;;;0.10;0.10;;;12.70;60.00;;;;;;5495298;26;20463;-79
2024/04/21 09:37:16;;;;;;;0.10;0.10;;;12.90;59.10;;;;;;5492319;26;20008;-79
2024/04/21 09:39:45;;;;;;;0.10;0.10;;;12.90;58.60;;;;;;5494959;26;20012;-79
2024/04/21 09:42:13;;;;;;;0.20;0.20;;;13.00;57.80;;;;;;5493184;26;20006;-79
2024/04/21 09:44:40;;;;;;;0.13;0.13;;;13.10;58.30;;;;;;5493188;26;20328;-79
2024/04/21 09:47:06;;;;;;;0.20;0.20;;;13.10;58.10;;;;;;5494554;26;20057;-79
2024/04/21 09:49:34;;;;;;;0.20;0.20;;;13.30;58.00;;;;;;5493721;26;19998;-79
2024/04/21 09:52:03;;;;;;;0.20;0.20;;;13.60;56.80;;;;;;5493116;26;19998;-79
2024/04/21 09:54:29;;;;;;;0.20;0.20;;;14.10;56.80;;;;;;5492916;26;20004;-80
2024/04/21 09:57:03;;;;;;;0.20;0.20;;;14.30;55.60;;;;;;5493893;26;19998;-80
2024/04/21 09:59:30;;;;;;;0.20;0.20;;;14.40;55.70;;;;;;5494989;26;20072;-80
2024/04/21 10:01:59;;;;;;;0.30;0.30;;;14.60;54.20;;;;;;5493409;26;20017;-80
2024/04/21 10:04:29;;;;;;;0.30;0.30;;;14.70;54.00;;;;;;5493671;26;20570;-80
2024/04/21 10:06:56;;;;;;;0.20;0.20;;;15.10;53.20;;;;;;5494765;26;20316;-80
2024/04/21 10:09:22;;;;;;;0.20;0.20;;;15.30;51.40;;;;;;5502892;26;20347;-81
2024/04/21 10:11:49;;;;;;;0.20;0.20;;;15.60;50.80;;;;;;5531947;25;20532;-80
2024/04/21 10:14:16;;;;;;;0.20;0.20;;;15.60;51.00;;;;;;5517039;25;19998;-80
2024/04/21 10:16:42;;;;;;;0.30;0.30;;;15.70;50.70;;;;;;5492626;26;19998;-80
2024/04/21 10:19:08;;;;;;;0.20;0.20;;;15.90;50.00;;;;;;5494687;26;20144;-81
2024/04/21 10:21:37;;;;;;;0.28;0.28;;;16.00;49.80;;;;;;5493837;26;20010;-81
2024/04/21 10:24:04;;;;;;;0.17;0.17;;;16.30;49.40;;;;;;5481086;26;19998;-80
2024/04/21 10:26:30;;;;;;;0.20;0.20;;;16.10;49.20;;;;;;5494619;26;20030;-80
2024/04/21 10:29:11;;;;;;;0.20;0.20;;;16.20;49.10;;;;;;5492278;26;20328;-80
2024/04/21 10:31:37;;;;;;;0.20;0.20;;;16.30;48.90;;;;;;5492343;26;20009;-81
2024/04/21 10:34:10;;;;;;;0.20;0.20;;;16.40;49.30;;;;;;5493407;26;19990;-81
2024/04/21 10:36:40;;;;;;;;;;;16.30;50.00;;;;;;5493055;26;20013;-80
2024/04/21 10:39:06;;;;;;;0.10;0.10;;;16.10;49.30;;;;;;5494437;26;20320;-80
2024/04/21 10:41:43;;;;;;;0.10;0.10;;;16.00;49.90;;;;;;5472339;26;19994;-80
2024/04/21 10:44:12;;;;;;;0.20;0.20;;;15.90;49.90;;;;;;5492384;26;19998;-80
2024/04/21 10:46:39;;;;;;;0.20;0.20;;;16.00;49.30;;;;;;5491116;26;20012;-80
2024/04/21 10:49:05;;;;;;;0.20;0.20;;;16.00;49.30;;;;;;5494041;26;20006;-80
2024/04/21 10:51:32;;;;;;;0.10;0.10;;;16.00;48.80;;;;;;5494178;26;20005;-80
2024/04/21 10:53:58;;;;;;;0.10;0.10;;;15.80;49.00;;;;;;5492391;26;20461;-80
2024/04/21 10:56:24;;;;;;;0.10;0.10;;;15.70;49.40;;;;;;5494277;26;20002;-80
2024/04/21 10:58:49;;;;;;;0.20;0.20;;;15.60;50.00;;;;;;5492785;26;20034;-80
2024/04/21 11:01:15;;;;;;;0.20;0.20;;;15.70;49.60;;;;;;5492413;26;19998;-79
2024/04/21 11:03:42;;;;;;;0.10;0.10;;;15.60;49.90;;;;;;5494115;26;20005;-80
2024/04/21 11:06:08;;;;;;;0.10;0.10;;;15.80;50.00;;;;;;5493255;26;20364;-80
2024/04/21 11:08:34;;;;;;;0.10;0.10;;;15.80;49.40;;;;;;5492103;26;20443;-79
2024/04/21 11:11:01;;;;;;;0.20;0.20;;;15.70;49.90;;;;;;5527227;26;19993;-80
2024/04/21 11:13:30;;;;;;;0.20;0.20;;;15.80;50.00;;;;;;5495715;25;20017;-79
2024/04/21 11:15:56;;;;;;;0.10;0.10;;;16.00;49.60;;;;;;5492120;26;20013;-79
2024/04/21 11:18:22;;;;;;;0.10;0.10;;;15.90;48.90;;;;;;5492756;26;19994;-79
2024/04/21 11:20:47;;;;;;;0.10;0.10;;;16.00;50.00;;;;;;5492231;26;20006;-79
2024/04/21 11:23:18;;;;;;;0.10;0.10;;;15.70;49.20;;;;;;5493731;26;20006;-79
2024/04/21 11:25:47;;;;;;;0.10;0.10;;;15.50;48.90;;;;;;5494061;26;20013;-79
2024/04/21 11:28:16;;;;;;;0.20;0.20;;;15.30;49.20;;;;;;5484460;26;20026;-79
2024/04/21 11:30:42;;;;;;;0.10;0.10;;;15.50;49.50;;;;;;5457106;26;19999;-80
2024/04/21 11:33:08;;;;;;;0.20;0.20;;;15.80;49.00;;;;;;5456819;26;20429;-79
2024/04/21 11:35:35;;;;;;;0.10;0.10;;;16.00;48.20;;;;;;5456216;26;20048;-80
2024/04/21 11:38:01;;;;;;;0.10;0.10;;;16.20;47.40;;;;;;5459296;26;20468;-80
2024/04/21 11:40:27;;;;;;;0.20;0.20;;;16.10;46.70;;;;;;5481548;26;20369;-79
2024/04/21 11:42:52;;;;;;;0.10;0.10;;;16.10;47.20;;;;;;5456816;26;20003;-80
2024/04/21 11:45:29;;;;;;;0.20;0.20;;;15.80;47.10;;;;;;5480422;26;20480;-80
2024/04/21 11:47:56;;;;;;;0.10;0.10;;;16.00;48.10;;;;;;5490619;26;19994;-80
2024/04/21 11:50:23;;;;;;;0.10;0.10;;;16.00;48.70;;;;;;5491059;26;19994;-80
2024/04/21 11:52:49;;;;;;;0.10;0.10;;;16.00;47.80;;;;;;5493068;26;20339;-80
2024/04/21 11:55:15;;;;;;;0.10;0.10;;;16.30;45.80;;;;;;5500663;26;19994;-80
2024/04/21 11:57:43;;;;;;;0.20;0.20;;;16.30;45.50;;;;;;5491343;26;19998;-80
2024/04/21 12:00:09;;;;;;;0.20;0.20;;;16.30;45.40;;;;;;5483560;26;20072;-80
2024/04/21 12:02:35;;;;;;;0.10;0.10;;;16.50;44.70;;;;;;5456434;26;20007;-80
2024/04/21 12:05:00;;;;;;;0.10;0.10;;;16.50;44.20;;;;;;5456729;26;20079;-80
2024/04/21 12:07:26;;;;;;;0.10;0.10;;;16.20;43.60;;;;;;5456749;26;20010;-80
2024/04/21 12:09:51;;;;;;;0.10;0.10;;;16.20;43.70;;;;;;5474522;26;20452;-80
2024/04/21 12:12:17;;;;;;;0.10;0.10;;;16.10;44.40;;;;;;5492625;26;19998;-80
2024/04/21 12:14:44;;;;;;;0.10;0.10;;;15.80;45.20;;;;;;5492607;26;20002;-80
2024/04/21 12:17:11;;;;;;;0.10;0.10;;;15.60;46.50;;;;;;5491165;26;20006;-80
2024/04/21 12:19:37;;;;;;;0.10;0.10;;;15.30;47.30;;;;;;5486073;26;19998;-79
2024/04/21 12:22:03;;;;;;;0.10;0.10;;;15.60;48.00;;;;;;5455736;26;20332;-80
2024/04/21 12:24:28;;;;;;;0.10;0.10;;;15.70;47.70;;;;;;5469327;26;19995;-80
2024/04/21 12:26:54;;;;;;;0.10;0.10;;;15.80;47.80;;;;;;5491583;26;19998;-80
2024/04/21 12:29:20;;;;;;;0.10;0.10;;;15.90;46.40;;;;;;5491441;26;20369;-80
2024/04/21 12:31:46;;;;;;;0.10;0.10;;;16.00;43.90;;;;;;5490461;26;20336;-80
2024/04/21 12:34:12;;;;;;;0.10;0.10;;;15.90;43.70;;;;;;5490601;26;20012;-80
2024/04/21 12:36:37;;;;;;;0.10;0.10;;;16.00;42.80;;;;;;5490650;26;20002;-80
2024/04/21 12:39:04;;;;;;;0.10;0.10;;;16.40;43.20;;;;;;5491727;26;20491;-80
2024/04/21 12:41:30;;;;;;;0.10;0.10;;;16.60;42.60;;;;;;5464362;26;20044;-80
2024/04/21 12:43:55;;;;;;;0.10;0.10;;;16.40;42.40;;;;;;5455699;26;20356;-80
2024/04/21 12:46:21;;;;;;;0.10;0.10;;;16.10;42.20;;;;;;5458120;26;20829;-81